sensor_id;sensor_type;location;lat;lon;timestamp;P1;durP1;ratioP1;P2;durP2;ratioP2
20302;SDS011;10310;50.906;4.622;2022-09-14T00:02:26;9.50;;;7.17;;
20302;SDS011;10310;50.906;4.622;2022-09-14T00:04:53;10.40;;;7.53;;
20302;SDS011;10310;50.906;4.622;2022-09-14T00:07:20;10.97;;;7.00;;
20302;SDS011;10310;50.906;4.622;2022-09-14T00:09:48;9.10;;;6.43;;
20302;SDS011;10310;50.906;4.622;2022-09-14T00:12:16;8.97;;;6.03;;
20302;SDS011;10310;50.906;4.622;2022-09-14T00:14:44;8.13;;;6.00;;
20302;SDS011;10310;50.906;4.622;2022-09-14T00:17:11;7.93;;;5.47;;
20302;SDS011;10310;50.906;4.622;2022-09-14T00:19:38;9.87;;;5.17;;
20302;SDS011;10310;50.906;4.622;2022-09-14T00:22:04;10.73;;;4.70;;
20302;SDS011;10310;50.906;4.622;2022-09-14T00:24:31;9.13;;;4.57;;
20302;SDS011;10310;50.906;4.622;2022-09-14T00:27:00;6.93;;;4.60;;
20302;SDS011;10310;50.906;4.622;2022-09-14T00:29:30;7.00;;;4.40;;
20302;SDS011;10310;50.906;4.622;2022-09-14T00:31:58;7.43;;;4.70;;
20302;SDS011;10310;50.906;4.622;2022-09-14T00:34:25;9.03;;;4.87;;
20302;SDS011;10310;50.906;4.622;2022-09-14T00:36:53;9.00;;;4.30;;
20302;SDS011;10310;50.906;4.622;2022-09-14T00:39:21;11.00;;;5.23;;
20302;SDS011;10310;50.906;4.622;2022-09-14T00:41:49;6.73;;;4.90;;
20302;SDS011;10310;50.906;4.622;2022-09-14T00:47:27;11.07;;;6.00;;
20302;SDS011;10310;50.906;4.622;2022-09-14T00:49:56;9.70;;;6.67;;
20302;SDS011;10310;50.906;4.622;2022-09-14T00:52:26;10.57;;;6.40;;
20302;SDS011;10310;50.906;4.622;2022-09-14T00:54:57;8.73;;;6.20;;
20302;SDS011;10310;50.906;4.622;2022-09-14T00:57:26;12.17;;;6.03;;
20302;SDS011;10310;50.906;4.622;2022-09-14T00:59:57;11.33;;;6.00;;
20302;SDS011;10310;50.906;4.622;2022-09-14T01:02:25;7.10;;;5.87;;
20302;SDS011;10310;50.906;4.622;2022-09-14T01:04:53;9.77;;;5.70;;
20302;SDS011;10310;50.906;4.622;2022-09-14T01:07:31;8.60;;;5.63;;
20302;SDS011;10310;50.906;4.622;2022-09-14T01:10:11;6.73;;;4.60;;
20302;SDS011;10310;50.906;4.622;2022-09-14T01:12:55;7.47;;;4.57;;
20302;SDS011;10310;50.906;4.622;2022-09-14T01:15:32;9.77;;;4.37;;
20302;SDS011;10310;50.906;4.622;2022-09-14T01:18:07;5.53;;;4.10;;
20302;SDS011;10310;50.906;4.622;2022-09-14T01:20:42;7.10;;;3.73;;
20302;SDS011;10310;50.906;4.622;2022-09-14T01:23:14;6.63;;;3.63;;
20302;SDS011;10310;50.906;4.622;2022-09-14T01:28:51;7.40;;;3.77;;
20302;SDS011;10310;50.906;4.622;2022-09-14T01:31:24;8.63;;;4.30;;
20302;SDS011;10310;50.906;4.622;2022-09-14T01:33:56;8.80;;;4.60;;
20302;SDS011;10310;50.906;4.622;2022-09-14T01:36:30;7.27;;;3.87;;
20302;SDS011;10310;50.906;4.622;2022-09-14T01:39:01;12.33;;;4.23;;
20302;SDS011;10310;50.906;4.622;2022-09-14T01:41:29;5.40;;;4.07;;
20302;SDS011;10310;50.906;4.622;2022-09-14T01:43:59;5.40;;;4.33;;
20302;SDS011;10310;50.906;4.622;2022-09-14T01:46:34;8.90;;;4.80;;
20302;SDS011;10310;50.906;4.622;2022-09-14T01:49:06;6.93;;;4.30;;
20302;SDS011;10310;50.906;4.622;2022-09-14T01:51:36;5.27;;;4.30;;
20302;SDS011;10310;50.906;4.622;2022-09-14T01:54:08;8.57;;;4.53;;
20302;SDS011;10310;50.906;4.622;2022-09-14T01:56:41;8.37;;;4.00;;
20302;SDS011;10310;50.906;4.622;2022-09-14T01:59:16;10.63;;;4.47;;
20302;SDS011;10310;50.906;4.622;2022-09-14T02:01:47;6.43;;;4.13;;
20302;SDS011;10310;50.906;4.622;2022-09-14T02:04:20;8.63;;;4.47;;
20302;SDS011;10310;50.906;4.622;2022-09-14T02:06:51;12.17;;;4.43;;
20302;SDS011;10310;50.906;4.622;2022-09-14T02:09:20;7.17;;;4.50;;
20302;SDS011;10310;50.906;4.622;2022-09-14T02:11:51;8.57;;;4.83;;
20302;SDS011;10310;50.906;4.622;2022-09-14T02:14:20;6.07;;;4.30;;
20302;SDS011;10310;50.906;4.622;2022-09-14T02:16:47;8.70;;;4.60;;
20302;SDS011;10310;50.906;4.622;2022-09-14T02:19:14;7.30;;;4.37;;
20302;SDS011;10310;50.906;4.622;2022-09-14T02:21:42;7.37;;;4.50;;
20302;SDS011;10310;50.906;4.622;2022-09-14T02:24:11;7.43;;;4.60;;
20302;SDS011;10310;50.906;4.622;2022-09-14T02:26:40;9.07;;;4.70;;
20302;SDS011;10310;50.906;4.622;2022-09-14T02:29:07;10.47;;;5.10;;
20302;SDS011;10310;50.906;4.622;2022-09-14T02:31:40;7.97;;;4.40;;
20302;SDS011;10310;50.906;4.622;2022-09-14T02:34:21;8.50;;;4.40;;
20302;SDS011;10310;50.906;4.622;2022-09-14T02:36:56;8.20;;;4.87;;
20302;SDS011;10310;50.906;4.622;2022-09-14T02:39:30;8.33;;;4.60;;
20302;SDS011;10310;50.906;4.622;2022-09-14T02:42:04;10.47;;;4.53;;
20302;SDS011;10310;50.906;4.622;2022-09-14T02:44:40;9.43;;;4.90;;
20302;SDS011;10310;50.906;4.622;2022-09-14T02:47:15;9.93;;;5.80;;
20302;SDS011;10310;50.906;4.622;2022-09-14T02:49:49;8.53;;;4.80;;
20302;SDS011;10310;50.906;4.622;2022-09-14T02:52:25;7.93;;;5.10;;
20302;SDS011;10310;50.906;4.622;2022-09-14T02:54:58;10.93;;;5.67;;
20302;SDS011;10310;50.906;4.622;2022-09-14T02:57:31;11.13;;;5.70;;
20302;SDS011;10310;50.906;4.622;2022-09-14T02:59:58;11.20;;;6.07;;
20302;SDS011;10310;50.906;4.622;2022-09-14T03:02:27;9.67;;;6.40;;
20302;SDS011;10310;50.906;4.622;2022-09-14T03:04:56;10.30;;;6.53;;
20302;SDS011;10310;50.906;4.622;2022-09-14T03:07:23;10.60;;;7.27;;
20302;SDS011;10310;50.906;4.622;2022-09-14T03:09:50;9.23;;;7.13;;
20302;SDS011;10310;50.906;4.622;2022-09-14T03:12:17;13.67;;;8.00;;
20302;SDS011;10310;50.906;4.622;2022-09-14T03:14:44;14.53;;;7.70;;
20302;SDS011;10310;50.906;4.622;2022-09-14T03:17:11;11.80;;;8.13;;
20302;SDS011;10310;50.906;4.622;2022-09-14T03:19:39;13.63;;;9.00;;
20302;SDS011;10310;50.906;4.622;2022-09-14T03:22:08;12.70;;;8.23;;
20302;SDS011;10310;50.906;4.622;2022-09-14T03:24:35;16.23;;;8.77;;
20302;SDS011;10310;50.906;4.622;2022-09-14T03:27:01;14.70;;;8.17;;
20302;SDS011;10310;50.906;4.622;2022-09-14T03:29:28;14.60;;;9.07;;
20302;SDS011;10310;50.906;4.622;2022-09-14T03:31:55;13.83;;;9.13;;
20302;SDS011;10310;50.906;4.622;2022-09-14T03:34:22;19.67;;;8.73;;
20302;SDS011;10310;50.906;4.622;2022-09-14T03:36:51;16.10;;;9.57;;
20302;SDS011;10310;50.906;4.622;2022-09-14T03:39:17;16.73;;;9.67;;
20302;SDS011;10310;50.906;4.622;2022-09-14T03:41:44;12.33;;;9.57;;
20302;SDS011;10310;50.906;4.622;2022-09-14T03:44:12;15.53;;;10.00;;
20302;SDS011;10310;50.906;4.622;2022-09-14T03:46:39;12.93;;;9.60;;
20302;SDS011;10310;50.906;4.622;2022-09-14T03:49:05;17.17;;;9.07;;
20302;SDS011;10310;50.906;4.622;2022-09-14T03:51:32;18.33;;;10.00;;
20302;SDS011;10310;50.906;4.622;2022-09-14T03:54:01;17.17;;;10.03;;
20302;SDS011;10310;50.906;4.622;2022-09-14T03:56:28;13.20;;;9.17;;
20302;SDS011;10310;50.906;4.622;2022-09-14T03:58:55;12.53;;;9.77;;
20302;SDS011;10310;50.906;4.622;2022-09-14T04:01:22;16.03;;;9.63;;
20302;SDS011;10310;50.906;4.622;2022-09-14T04:03:49;14.57;;;9.60;;
20302;SDS011;10310;50.906;4.622;2022-09-14T04:06:17;14.57;;;9.43;;
20302;SDS011;10310;50.906;4.622;2022-09-14T04:08:44;12.57;;;10.23;;
20302;SDS011;10310;50.906;4.622;2022-09-14T04:11:14;13.27;;;8.97;;
20302;SDS011;10310;50.906;4.622;2022-09-14T04:13:43;13.20;;;9.83;;
20302;SDS011;10310;50.906;4.622;2022-09-14T04:16:11;14.40;;;9.67;;
20302;SDS011;10310;50.906;4.622;2022-09-14T04:18:38;15.37;;;10.00;;
20302;SDS011;10310;50.906;4.622;2022-09-14T04:21:05;15.27;;;10.57;;
20302;SDS011;10310;50.906;4.622;2022-09-14T04:23:33;16.47;;;11.03;;
20302;SDS011;10310;50.906;4.622;2022-09-14T04:26:01;15.77;;;11.03;;
20302;SDS011;10310;50.906;4.622;2022-09-14T04:28:37;15.23;;;12.60;;
20302;SDS011;10310;50.906;4.622;2022-09-14T04:31:04;20.23;;;12.20;;
20302;SDS011;10310;50.906;4.622;2022-09-14T04:33:32;17.97;;;13.23;;
20302;SDS011;10310;50.906;4.622;2022-09-14T04:36:01;17.40;;;12.83;;
20302;SDS011;10310;50.906;4.622;2022-09-14T04:38:29;19.43;;;12.97;;
20302;SDS011;10310;50.906;4.622;2022-09-14T04:40:58;18.27;;;12.83;;
20302;SDS011;10310;50.906;4.622;2022-09-14T04:43:32;18.53;;;13.57;;
20302;SDS011;10310;50.906;4.622;2022-09-14T04:46:01;21.90;;;14.13;;
20302;SDS011;10310;50.906;4.622;2022-09-14T04:48:29;19.37;;;13.87;;
20302;SDS011;10310;50.906;4.622;2022-09-14T04:50:59;23.77;;;14.27;;
20302;SDS011;10310;50.906;4.622;2022-09-14T04:53:27;23.43;;;14.87;;
20302;SDS011;10310;50.906;4.622;2022-09-14T04:55:57;21.10;;;15.57;;
20302;SDS011;10310;50.906;4.622;2022-09-14T04:58:25;24.87;;;16.17;;
20302;SDS011;10310;50.906;4.622;2022-09-14T05:00:53;25.83;;;16.53;;
20302;SDS011;10310;50.906;4.622;2022-09-14T05:03:22;22.67;;;16.73;;
20302;SDS011;10310;50.906;4.622;2022-09-14T05:05:49;25.00;;;17.17;;
20302;SDS011;10310;50.906;4.622;2022-09-14T05:08:16;26.17;;;18.13;;
20302;SDS011;10310;50.906;4.622;2022-09-14T05:10:43;27.03;;;18.40;;
20302;SDS011;10310;50.906;4.622;2022-09-14T05:13:10;28.00;;;20.37;;
20302;SDS011;10310;50.906;4.622;2022-09-14T05:15:38;29.43;;;19.57;;
20302;SDS011;10310;50.906;4.622;2022-09-14T05:18:06;28.30;;;19.23;;
20302;SDS011;10310;50.906;4.622;2022-09-14T05:20:34;27.70;;;19.50;;
20302;SDS011;10310;50.906;4.622;2022-09-14T05:23:01;27.93;;;20.73;;
20302;SDS011;10310;50.906;4.622;2022-09-14T05:25:28;28.10;;;20.20;;
20302;SDS011;10310;50.906;4.622;2022-09-14T05:27:56;32.17;;;21.50;;
20302;SDS011;10310;50.906;4.622;2022-09-14T05:30:23;28.17;;;21.23;;
20302;SDS011;10310;50.906;4.622;2022-09-14T05:32:50;31.60;;;22.70;;
20302;SDS011;10310;50.906;4.622;2022-09-14T05:35:17;36.33;;;23.23;;
20302;SDS011;10310;50.906;4.622;2022-09-14T05:37:45;31.30;;;22.77;;
20302;SDS011;10310;50.906;4.622;2022-09-14T05:40:12;32.63;;;23.30;;
20302;SDS011;10310;50.906;4.622;2022-09-14T05:42:39;32.90;;;22.33;;
20302;SDS011;10310;50.906;4.622;2022-09-14T05:45:09;31.90;;;22.80;;
20302;SDS011;10310;50.906;4.622;2022-09-14T05:47:36;32.33;;;24.33;;
20302;SDS011;10310;50.906;4.622;2022-09-14T05:50:03;37.17;;;25.60;;
20302;SDS011;10310;50.906;4.622;2022-09-14T05:52:32;35.33;;;26.53;;
20302;SDS011;10310;50.906;4.622;2022-09-14T05:55:00;38.80;;;28.23;;
20302;SDS011;10310;50.906;4.622;2022-09-14T05:57:27;41.57;;;27.80;;
20302;SDS011;10310;50.906;4.622;2022-09-14T05:59:54;39.47;;;26.57;;
20302;SDS011;10310;50.906;4.622;2022-09-14T06:02:21;38.63;;;27.97;;
20302;SDS011;10310;50.906;4.622;2022-09-14T06:04:47;38.80;;;28.03;;
20302;SDS011;10310;50.906;4.622;2022-09-14T06:07:14;38.73;;;27.03;;
20302;SDS011;10310;50.906;4.622;2022-09-14T06:09:41;39.20;;;27.87;;
20302;SDS011;10310;50.906;4.622;2022-09-14T06:12:10;40.23;;;28.57;;
20302;SDS011;10310;50.906;4.622;2022-09-14T06:14:38;38.27;;;26.90;;
20302;SDS011;10310;50.906;4.622;2022-09-14T06:17:05;43.60;;;28.77;;
20302;SDS011;10310;50.906;4.622;2022-09-14T06:19:32;41.77;;;28.37;;
20302;SDS011;10310;50.906;4.622;2022-09-14T06:21:59;41.27;;;28.93;;
20302;SDS011;10310;50.906;4.622;2022-09-14T06:24:26;44.80;;;29.40;;
20302;SDS011;10310;50.906;4.622;2022-09-14T06:26:53;44.53;;;29.70;;
20302;SDS011;10310;50.906;4.622;2022-09-14T06:29:21;42.00;;;28.27;;
20302;SDS011;10310;50.906;4.622;2022-09-14T06:31:48;41.43;;;27.87;;
20302;SDS011;10310;50.906;4.622;2022-09-14T06:34:15;42.67;;;28.77;;
20302;SDS011;10310;50.906;4.622;2022-09-14T06:36:42;38.70;;;28.03;;
20302;SDS011;10310;50.906;4.622;2022-09-14T06:39:09;37.10;;;27.50;;
20302;SDS011;10310;50.906;4.622;2022-09-14T06:41:36;37.83;;;26.43;;
20302;SDS011;10310;50.906;4.622;2022-09-14T06:44:03;38.67;;;27.23;;
20302;SDS011;10310;50.906;4.622;2022-09-14T06:46:32;36.17;;;26.83;;
20302;SDS011;10310;50.906;4.622;2022-09-14T06:49:00;36.80;;;26.30;;
20302;SDS011;10310;50.906;4.622;2022-09-14T06:51:29;37.10;;;26.70;;
20302;SDS011;10310;50.906;4.622;2022-09-14T06:53:58;31.70;;;25.53;;
20302;SDS011;10310;50.906;4.622;2022-09-14T06:56:26;33.80;;;25.87;;
20302;SDS011;10310;50.906;4.622;2022-09-14T06:58:54;32.63;;;25.83;;
20302;SDS011;10310;50.906;4.622;2022-09-14T07:01:20;33.37;;;24.80;;
20302;SDS011;10310;50.906;4.622;2022-09-14T07:03:51;33.73;;;25.63;;
20302;SDS011;10310;50.906;4.622;2022-09-14T07:06:19;31.43;;;25.23;;
20302;SDS011;10310;50.906;4.622;2022-09-14T07:08:47;30.33;;;24.37;;
20302;SDS011;10310;50.906;4.622;2022-09-14T07:11:16;30.83;;;24.37;;
20302;SDS011;10310;50.906;4.622;2022-09-14T07:13:44;31.10;;;24.50;;
20302;SDS011;10310;50.906;4.622;2022-09-14T07:16:12;34.20;;;23.43;;
20302;SDS011;10310;50.906;4.622;2022-09-14T07:18:40;30.73;;;23.73;;
20302;SDS011;10310;50.906;4.622;2022-09-14T07:21:10;28.60;;;23.50;;
20302;SDS011;10310;50.906;4.622;2022-09-14T07:23:39;33.10;;;24.83;;
20302;SDS011;10310;50.906;4.622;2022-09-14T07:26:08;30.10;;;24.23;;
20302;SDS011;10310;50.906;4.622;2022-09-14T07:28:36;31.17;;;23.83;;
20302;SDS011;10310;50.906;4.622;2022-09-14T07:31:04;27.20;;;22.27;;
20302;SDS011;10310;50.906;4.622;2022-09-14T07:33:41;30.73;;;23.83;;
20302;SDS011;10310;50.906;4.622;2022-09-14T07:36:10;30.47;;;24.13;;
20302;SDS011;10310;50.906;4.622;2022-09-14T07:38:37;26.80;;;23.53;;
20302;SDS011;10310;50.906;4.622;2022-09-14T07:41:05;30.13;;;23.60;;
20302;SDS011;10310;50.906;4.622;2022-09-14T07:43:32;26.00;;;22.57;;
20302;SDS011;10310;50.906;4.622;2022-09-14T07:46:00;29.47;;;23.40;;
20302;SDS011;10310;50.906;4.622;2022-09-14T07:48:28;29.43;;;24.30;;
20302;SDS011;10310;50.906;4.622;2022-09-14T07:50:58;32.33;;;24.70;;
20302;SDS011;10310;50.906;4.622;2022-09-14T07:53:27;28.20;;;21.73;;
20302;SDS011;10310;50.906;4.622;2022-09-14T07:55:56;27.63;;;23.00;;
20302;SDS011;10310;50.906;4.622;2022-09-14T07:58:24;30.17;;;23.47;;
20302;SDS011;10310;50.906;4.622;2022-09-14T08:00:51;29.90;;;24.20;;
20302;SDS011;10310;50.906;4.622;2022-09-14T08:03:22;31.03;;;24.20;;
20302;SDS011;10310;50.906;4.622;2022-09-14T08:05:56;32.93;;;24.80;;
20302;SDS011;10310;50.906;4.622;2022-09-14T08:08:23;33.57;;;25.30;;
20302;SDS011;10310;50.906;4.622;2022-09-14T08:10:52;33.70;;;25.23;;
20302;SDS011;10310;50.906;4.622;2022-09-14T08:13:20;31.97;;;24.50;;
20302;SDS011;10310;50.906;4.622;2022-09-14T08:15:47;31.53;;;24.47;;
20302;SDS011;10310;50.906;4.622;2022-09-14T08:18:14;31.47;;;24.20;;
20302;SDS011;10310;50.906;4.622;2022-09-14T08:20:41;28.73;;;23.37;;
20302;SDS011;10310;50.906;4.622;2022-09-14T08:23:07;29.57;;;23.97;;
20302;SDS011;10310;50.906;4.622;2022-09-14T08:25:35;29.63;;;23.37;;
20302;SDS011;10310;50.906;4.622;2022-09-14T08:28:03;28.60;;;23.17;;
20302;SDS011;10310;50.906;4.622;2022-09-14T08:30:30;28.23;;;22.83;;
20302;SDS011;10310;50.906;4.622;2022-09-14T08:32:58;29.23;;;22.90;;
20302;SDS011;10310;50.906;4.622;2022-09-14T08:35:25;26.83;;;22.40;;
20302;SDS011;10310;50.906;4.622;2022-09-14T08:37:52;24.00;;;21.03;;
20302;SDS011;10310;50.906;4.622;2022-09-14T08:40:19;25.33;;;20.70;;
20302;SDS011;10310;50.906;4.622;2022-09-14T08:42:46;23.83;;;21.33;;
20302;SDS011;10310;50.906;4.622;2022-09-14T08:45:15;25.33;;;21.57;;
20302;SDS011;10310;50.906;4.622;2022-09-14T08:47:42;25.47;;;20.70;;
20302;SDS011;10310;50.906;4.622;2022-09-14T08:50:10;22.67;;;19.23;;
20302;SDS011;10310;50.906;4.622;2022-09-14T08:52:41;23.13;;;19.50;;
20302;SDS011;10310;50.906;4.622;2022-09-14T08:55:16;21.67;;;19.40;;
20302;SDS011;10310;50.906;4.622;2022-09-14T08:57:48;20.03;;;18.03;;
20302;SDS011;10310;50.906;4.622;2022-09-14T09:00:23;20.17;;;18.10;;
20302;SDS011;10310;50.906;4.622;2022-09-14T09:03:01;20.73;;;18.00;;
20302;SDS011;10310;50.906;4.622;2022-09-14T09:05:50;19.00;;;17.10;;
20302;SDS011;10310;50.906;4.622;2022-09-14T09:08:22;19.90;;;17.83;;
20302;SDS011;10310;50.906;4.622;2022-09-14T09:10:55;20.63;;;18.43;;
20302;SDS011;10310;50.906;4.622;2022-09-14T09:13:27;19.87;;;17.83;;
20302;SDS011;10310;50.906;4.622;2022-09-14T09:15:58;21.70;;;17.53;;
20302;SDS011;10310;50.906;4.622;2022-09-14T09:18:29;20.07;;;17.97;;
20302;SDS011;10310;50.906;4.622;2022-09-14T09:21:03;19.80;;;17.70;;
20302;SDS011;10310;50.906;4.622;2022-09-14T09:23:33;19.50;;;17.50;;
20302;SDS011;10310;50.906;4.622;2022-09-14T09:26:02;19.00;;;17.10;;
20302;SDS011;10310;50.906;4.622;2022-09-14T09:28:31;19.17;;;17.23;;
20302;SDS011;10310;50.906;4.622;2022-09-14T09:31:01;22.13;;;17.17;;
20302;SDS011;10310;50.906;4.622;2022-09-14T09:33:31;19.67;;;17.67;;
20302;SDS011;10310;50.906;4.622;2022-09-14T09:35:58;19.23;;;17.20;;
20302;SDS011;10310;50.906;4.622;2022-09-14T09:38:26;18.70;;;16.33;;
20302;SDS011;10310;50.906;4.622;2022-09-14T09:40:55;18.53;;;16.57;;
20302;SDS011;10310;50.906;4.622;2022-09-14T09:43:26;17.90;;;16.03;;
20302;SDS011;10310;50.906;4.622;2022-09-14T09:45:54;17.83;;;16.13;;
20302;SDS011;10310;50.906;4.622;2022-09-14T09:48:26;17.10;;;15.37;;
20302;SDS011;10310;50.906;4.622;2022-09-14T09:51:02;18.60;;;16.73;;
20302;SDS011;10310;50.906;4.622;2022-09-14T09:53:33;17.67;;;16.03;;
20302;SDS011;10310;50.906;4.622;2022-09-14T09:56:02;17.63;;;16.03;;
20302;SDS011;10310;50.906;4.622;2022-09-14T09:58:32;17.17;;;15.50;;
20302;SDS011;10310;50.906;4.622;2022-09-14T10:01:01;18.30;;;16.57;;
20302;SDS011;10310;50.906;4.622;2022-09-14T10:03:33;18.83;;;16.97;;
20302;SDS011;10310;50.906;4.622;2022-09-14T10:06:06;17.33;;;15.73;;
20302;SDS011;10310;50.906;4.622;2022-09-14T10:08:38;18.03;;;16.30;;
20302;SDS011;10310;50.906;4.622;2022-09-14T10:13:57;19.13;;;17.13;;
20302;SDS011;10310;50.906;4.622;2022-09-14T10:16:24;20.67;;;18.17;;
20302;SDS011;10310;50.906;4.622;2022-09-14T10:18:58;21.30;;;19.10;;
20302;SDS011;10310;50.906;4.622;2022-09-14T10:21:27;21.07;;;18.87;;
20302;SDS011;10310;50.906;4.622;2022-09-14T10:24:02;19.93;;;17.87;;
20302;SDS011;10310;50.906;4.622;2022-09-14T10:26:32;19.90;;;17.73;;
20302;SDS011;10310;50.906;4.622;2022-09-14T10:31:52;20.97;;;18.87;;
20302;SDS011;10310;50.906;4.622;2022-09-14T10:34:23;19.27;;;17.27;;
20302;SDS011;10310;50.906;4.622;2022-09-14T10:36:51;18.40;;;16.60;;
20302;SDS011;10310;50.906;4.622;2022-09-14T10:39:26;18.90;;;17.10;;
20302;SDS011;10310;50.906;4.622;2022-09-14T10:42:03;18.20;;;16.30;;
20302;SDS011;10310;50.906;4.622;2022-09-14T10:44:44;18.90;;;17.10;;
20302;SDS011;10310;50.906;4.622;2022-09-14T10:47:24;19.30;;;17.40;;
20302;SDS011;10310;50.906;4.622;2022-09-14T10:50:19;19.03;;;17.23;;
20302;SDS011;10310;50.906;4.622;2022-09-14T10:52:55;17.40;;;15.70;;
20302;SDS011;10310;50.906;4.622;2022-09-14T10:55:34;17.83;;;16.03;;
20302;SDS011;10310;50.906;4.622;2022-09-14T10:58:27;18.53;;;16.83;;
20302;SDS011;10310;50.906;4.622;2022-09-14T11:01:05;18.63;;;15.93;;
20302;SDS011;10310;50.906;4.622;2022-09-14T11:03:45;18.00;;;16.23;;
20302;SDS011;10310;50.906;4.622;2022-09-14T11:06:25;18.87;;;17.13;;
20302;SDS011;10310;50.906;4.622;2022-09-14T11:09:05;18.77;;;16.73;;
20302;SDS011;10310;50.906;4.622;2022-09-14T11:11:43;17.83;;;16.13;;
20302;SDS011;10310;50.906;4.622;2022-09-14T11:14:23;17.57;;;15.83;;
20302;SDS011;10310;50.906;4.622;2022-09-14T11:17:11;18.57;;;16.67;;
20302;SDS011;10310;50.906;4.622;2022-09-14T11:19:59;16.90;;;15.27;;
20302;SDS011;10310;50.906;4.622;2022-09-14T11:22:38;16.70;;;15.10;;
20302;SDS011;10310;50.906;4.622;2022-09-14T11:25:10;17.37;;;15.63;;
20302;SDS011;10310;50.906;4.622;2022-09-14T11:27:41;17.60;;;15.50;;
20302;SDS011;10310;50.906;4.622;2022-09-14T11:30:13;17.90;;;16.10;;
20302;SDS011;10310;50.906;4.622;2022-09-14T11:32:44;17.20;;;15.40;;
20302;SDS011;10310;50.906;4.622;2022-09-14T11:35:15;17.53;;;15.33;;
20302;SDS011;10310;50.906;4.622;2022-09-14T11:37:47;18.27;;;16.50;;
20302;SDS011;10310;50.906;4.622;2022-09-14T11:40:19;17.60;;;15.80;;
20302;SDS011;10310;50.906;4.622;2022-09-14T11:42:51;18.63;;;16.77;;
20302;SDS011;10310;50.906;4.622;2022-09-14T11:45:25;17.40;;;15.70;;
20302;SDS011;10310;50.906;4.622;2022-09-14T11:47:58;16.80;;;15.20;;
20302;SDS011;10310;50.906;4.622;2022-09-14T11:50:31;16.23;;;14.83;;
20302;SDS011;10310;50.906;4.622;2022-09-14T11:53:06;17.37;;;15.57;;
20302;SDS011;10310;50.906;4.622;2022-09-14T11:55:36;18.23;;;16.53;;
20302;SDS011;10310;50.906;4.622;2022-09-14T11:58:06;18.97;;;16.90;;
20302;SDS011;10310;50.906;4.622;2022-09-14T12:00:43;16.60;;;15.20;;
20302;SDS011;10310;50.906;4.622;2022-09-14T12:03:13;17.47;;;15.60;;
20302;SDS011;10310;50.906;4.622;2022-09-14T12:05:43;18.43;;;16.73;;
20302;SDS011;10310;50.906;4.622;2022-09-14T12:11:22;19.93;;;18.03;;
20302;SDS011;10310;50.906;4.622;2022-09-14T12:14:14;20.90;;;18.80;;
20302;SDS011;10310;50.906;4.622;2022-09-14T12:17:03;21.00;;;18.80;;
20302;SDS011;10310;50.906;4.622;2022-09-14T12:19:31;21.13;;;19.10;;
20302;SDS011;10310;50.906;4.622;2022-09-14T12:24:54;20.30;;;18.20;;
20302;SDS011;10310;50.906;4.622;2022-09-14T12:27:23;19.70;;;17.80;;
20302;SDS011;10310;50.906;4.622;2022-09-14T12:29:50;20.50;;;18.37;;
20302;SDS011;10310;50.906;4.622;2022-09-14T12:32:37;25.20;;;22.77;;
20302;SDS011;10310;50.906;4.622;2022-09-14T12:50:22;15.60;;;14.10;;
20302;SDS011;10310;50.906;4.622;2022-09-14T12:55:55;15.93;;;14.43;;
20302;SDS011;10310;50.906;4.622;2022-09-14T12:58:30;15.73;;;14.13;;
20302;SDS011;10310;50.906;4.622;2022-09-14T13:01:17;15.50;;;14.00;;
20302;SDS011;10310;50.906;4.622;2022-09-14T13:03:51;13.93;;;12.50;;
20302;SDS011;10310;50.906;4.622;2022-09-14T13:06:20;16.20;;;14.60;;
20302;SDS011;10310;50.906;4.622;2022-09-14T13:08:48;15.37;;;13.87;;
20302;SDS011;10310;50.906;4.622;2022-09-14T13:11:19;14.73;;;13.03;;
20302;SDS011;10310;50.906;4.622;2022-09-14T13:13:49;14.93;;;13.60;;
20302;SDS011;10310;50.906;4.622;2022-09-14T13:16:20;15.13;;;13.73;;
20302;SDS011;10310;50.906;4.622;2022-09-14T13:19:16;15.70;;;14.20;;
20302;SDS011;10310;50.906;4.622;2022-09-14T13:21:46;15.93;;;14.20;;
20302;SDS011;10310;50.906;4.622;2022-09-14T13:24:24;17.93;;;16.10;;
20302;SDS011;10310;50.906;4.622;2022-09-14T13:26:55;16.83;;;14.77;;
20302;SDS011;10310;50.906;4.622;2022-09-14T13:29:23;15.97;;;14.30;;
20302;SDS011;10310;50.906;4.622;2022-09-14T13:31:52;15.70;;;14.10;;
20302;SDS011;10310;50.906;4.622;2022-09-14T13:34:22;16.10;;;14.40;;
20302;SDS011;10310;50.906;4.622;2022-09-14T13:36:51;15.43;;;13.80;;
20302;SDS011;10310;50.906;4.622;2022-09-14T13:39:25;13.73;;;12.50;;
20302;SDS011;10310;50.906;4.622;2022-09-14T13:41:54;12.90;;;11.70;;
20302;SDS011;10310;50.906;4.622;2022-09-14T13:44:24;12.47;;;11.40;;
20302;SDS011;10310;50.906;4.622;2022-09-14T13:46:57;12.50;;;11.40;;
20302;SDS011;10310;50.906;4.622;2022-09-14T13:49:26;12.67;;;11.27;;
20302;SDS011;10310;50.906;4.622;2022-09-14T13:55:06;10.83;;;9.83;;
20302;SDS011;10310;50.906;4.622;2022-09-14T14:00:48;10.50;;;9.40;;
20302;SDS011;10310;50.906;4.622;2022-09-14T14:03:23;10.57;;;9.57;;
20302;SDS011;10310;50.906;4.622;2022-09-14T14:05:53;9.50;;;8.60;;
20302;SDS011;10310;50.906;4.622;2022-09-14T14:08:24;8.53;;;7.67;;
20302;SDS011;10310;50.906;4.622;2022-09-14T14:10:58;8.27;;;7.53;;
20302;SDS011;10310;50.906;4.622;2022-09-14T14:13:27;8.53;;;7.83;;
20302;SDS011;10310;50.906;4.622;2022-09-14T15:03:53;7.40;;;6.43;;
20302;SDS011;10310;50.906;4.622;2022-09-14T15:06:20;7.57;;;6.93;;
20302;SDS011;10310;50.906;4.622;2022-09-14T15:08:51;7.53;;;6.93;;
20302;SDS011;10310;50.906;4.622;2022-09-14T15:11:19;8.53;;;7.73;;
20302;SDS011;10310;50.906;4.622;2022-09-14T15:13:46;8.70;;;7.50;;
20302;SDS011;10310;50.906;4.622;2022-09-14T15:16:14;10.33;;;8.60;;
20302;SDS011;10310;50.906;4.622;2022-09-14T15:18:41;10.97;;;9.20;;
20302;SDS011;10310;50.906;4.622;2022-09-14T15:21:09;8.87;;;7.97;;
20302;SDS011;10310;50.906;4.622;2022-09-14T15:23:36;9.67;;;8.43;;
20302;SDS011;10310;50.906;4.622;2022-09-14T15:26:03;15.07;;;10.57;;
20302;SDS011;10310;50.906;4.622;2022-09-14T15:28:30;9.77;;;8.17;;
20302;SDS011;10310;50.906;4.622;2022-09-14T15:31:02;7.97;;;7.17;;
20302;SDS011;10310;50.906;4.622;2022-09-14T15:33:29;10.83;;;9.10;;
20302;SDS011;10310;50.906;4.622;2022-09-14T15:35:56;23.77;;;15.23;;
20302;SDS011;10310;50.906;4.622;2022-09-14T15:38:24;10.10;;;9.10;;
20302;SDS011;10310;50.906;4.622;2022-09-14T15:40:51;9.30;;;8.30;;
20302;SDS011;10310;50.906;4.622;2022-09-14T15:43:18;15.20;;;12.07;;
20302;SDS011;10310;50.906;4.622;2022-09-14T15:45:45;11.70;;;10.60;;
20302;SDS011;10310;50.906;4.622;2022-09-14T15:48:12;11.90;;;10.80;;
20302;SDS011;10310;50.906;4.622;2022-09-14T15:50:41;15.90;;;12.67;;
20302;SDS011;10310;50.906;4.622;2022-09-14T15:53:08;17.23;;;15.43;;
20302;SDS011;10310;50.906;4.622;2022-09-14T15:55:38;12.80;;;11.70;;
20302;SDS011;10310;50.906;4.622;2022-09-14T15:58:06;14.13;;;12.80;;
20302;SDS011;10310;50.906;4.622;2022-09-14T16:00:33;15.27;;;13.67;;
20302;SDS011;10310;50.906;4.622;2022-09-14T16:03:02;13.40;;;11.57;;
20302;SDS011;10310;50.906;4.622;2022-09-14T16:05:29;11.80;;;10.63;;
20302;SDS011;10310;50.906;4.622;2022-09-14T16:07:58;12.57;;;11.37;;
20302;SDS011;10310;50.906;4.622;2022-09-14T16:10:25;14.13;;;12.73;;
20302;SDS011;10310;50.906;4.622;2022-09-14T16:12:53;17.13;;;14.73;;
20302;SDS011;10310;50.906;4.622;2022-09-14T16:15:20;15.30;;;13.80;;
20302;SDS011;10310;50.906;4.622;2022-09-14T16:17:48;16.13;;;14.47;;